createdAt,value
2023-04-09T00:00:34.952Z,10.00
2023-04-09T00:01:37.700Z,10.38
2023-04-09T00:02:41.207Z,11.35
2023-04-09T00:03:46.763Z,11.02
2023-04-09T00:04:49.335Z,10.52
2023-04-09T00:05:51.927Z,10.07
2023-04-09T00:06:54.398Z,10.05
2023-04-09T00:07:57.381Z,9.63
2023-04-09T00:09:00.002Z,11.48
2023-04-09T00:10:02.747Z,11.50
2023-04-09T00:13:39.507Z,10.60
2023-04-09T00:14:42.129Z,10.52
2023-04-09T00:15:45.718Z,10.13
2023-04-09T00:16:48.646Z,10.07
2023-04-09T00:17:51.397Z,10.13
2023-04-09T00:18:54.088Z,10.32
2023-04-09T00:19:56.955Z,10.30
2023-04-09T00:20:59.504Z,10.50
2023-04-09T00:22:02.102Z,11.18
2023-04-09T00:23:04.673Z,10.35
2023-04-09T00:24:07.209Z,9.82
2023-04-09T00:25:17.604Z,10.57
2023-04-09T00:26:36.544Z,10.43
2023-04-09T00:27:39.665Z,9.95
2023-04-09T00:30:40.560Z,9.38
2023-04-09T00:31:55.593Z,10.30
2023-04-09T00:33:49.194Z,10.63
2023-04-09T00:34:51.942Z,10.07
2023-04-09T00:35:54.588Z,9.77
2023-04-09T00:36:57.834Z,10.18
2023-04-09T00:38:00.551Z,9.23
2023-04-09T00:39:05.203Z,11.13
2023-04-09T00:40:08.253Z,10.00
2023-04-09T00:41:11.039Z,9.95
2023-04-09T00:42:13.586Z,10.27
2023-04-09T00:43:16.416Z,10.10
2023-04-09T00:44:18.928Z,9.75
2023-04-09T00:45:21.516Z,10.55
2023-04-09T00:46:23.998Z,10.57
2023-04-09T00:47:28.794Z,10.02
2023-04-09T00:48:31.867Z,10.00
2023-04-09T00:49:34.492Z,9.88
2023-04-09T00:50:37.128Z,9.85
2023-04-09T00:51:40.938Z,10.57
2023-04-09T00:52:43.569Z,10.32
2023-04-09T00:53:47.053Z,10.75
2023-04-09T00:54:51.116Z,10.25
2023-04-09T00:55:54.554Z,9.68
2023-04-09T00:56:57.790Z,10.48
2023-04-09T00:58:00.801Z,10.38
2023-04-09T00:59:03.609Z,10.68
2023-04-09T01:00:08.050Z,10.18
2023-04-09T01:01:11.002Z,10.05
2023-04-09T01:02:13.633Z,10.07
2023-04-09T01:03:16.671Z,10.35
2023-04-09T01:04:20.116Z,9.07
2023-04-09T01:05:22.717Z,11.02
2023-04-09T01:08:22.520Z,10.07
2023-04-09T01:09:29.224Z,12.00
2023-04-09T01:10:39.481Z,13.32
2023-04-09T01:11:54.150Z,13.45
2023-04-09T01:12:59.562Z,13.80
2023-04-09T01:14:17.299Z,14.20
2023-04-09T01:15:25.091Z,13.27
2023-04-09T01:16:29.852Z,13.60
2023-04-09T01:17:41.510Z,14.18
2023-04-09T01:19:11.164Z,14.35
2023-04-09T01:20:19.482Z,13.63
2023-04-09T01:21:34.215Z,14.52
2023-04-09T01:22:50.168Z,13.30
2023-04-09T01:24:08.163Z,13.75
2023-04-09T01:25:33.885Z,13.88
2023-04-09T01:26:58.520Z,13.40
2023-04-09T01:28:13.934Z,14.35
2023-04-09T01:29:18.052Z,13.38
2023-04-09T01:30:21.195Z,15.38
2023-04-09T01:31:30.461Z,15.40
2023-04-09T01:32:35.653Z,14.10
2023-04-09T01:33:38.587Z,14.73
2023-04-09T01:37:55.516Z,14.75
2023-04-09T01:38:58.450Z,14.27
2023-04-09T01:40:01.783Z,14.48
2023-04-09T01:41:05.209Z,15.40
2023-04-09T01:42:11.307Z,15.20
2023-04-09T01:43:24.922Z,15.45
2023-04-09T01:44:42.479Z,14.38
2023-04-09T01:45:48.904Z,14.38
2023-04-09T01:46:58.629Z,14.45
2023-04-09T01:48:01.641Z,14.57
2023-04-09T01:53:55.257Z,12.85
2023-04-09T01:59:12.214Z,13.07
2023-04-09T02:00:52.624Z,13.23
2023-04-09T02:04:24.147Z,13.77
2023-04-09T02:05:29.662Z,13.63
2023-04-09T02:07:46.674Z,13.70
2023-04-09T02:08:50.487Z,13.50
2023-04-09T02:11:53.826Z,12.18
2023-04-09T02:13:35.845Z,11.30
2023-04-09T02:15:12.494Z,12.52
2023-04-09T02:16:42.492Z,10.85
2023-04-09T02:19:55.729Z,11.73
2023-04-09T02:21:33.508Z,10.52
2023-04-09T02:22:44.531Z,11.25
2023-04-09T02:24:26.115Z,11.10
2023-04-09T02:25:28.722Z,10.38
2023-04-09T02:28:09.905Z,11.35
2023-04-09T02:29:13.368Z,11.85
2023-04-09T02:30:16.194Z,11.00
2023-04-09T02:31:27.189Z,11.43
2023-04-09T02:32:30.372Z,11.02
2023-04-09T02:33:34.501Z,11.32
2023-04-09T02:34:37.111Z,12.43
2023-04-09T02:35:49.346Z,10.20
2023-04-09T02:37:24.728Z,10.95
2023-04-09T02:41:49.714Z,9.93
2023-04-09T02:43:03.482Z,10.43
2023-04-09T02:44:31.299Z,10.13
2023-04-09T02:45:37.866Z,10.95
2023-04-09T02:50:10.018Z,9.68
2023-04-09T02:51:57.586Z,10.70
2023-04-09T02:53:25.697Z,9.80
2023-04-09T02:54:28.266Z,10.20
2023-04-09T02:58:43.051Z,9.55
2023-04-09T03:03:49.308Z,9.60
2023-04-09T03:06:30.443Z,10.43
2023-04-09T03:07:58.366Z,10.65
2023-04-09T03:09:25.363Z,11.13
2023-04-09T03:10:27.947Z,10.68
2023-04-09T03:14:07.517Z,10.63
2023-04-09T03:15:36.417Z,11.30
2023-04-09T03:16:55.407Z,11.25
2023-04-09T03:18:07.205Z,11.18
2023-04-09T03:23:14.498Z,11.00
2023-04-09T03:26:56.093Z,10.85
2023-04-09T03:30:15.509Z,11.70
2023-04-09T03:31:20.624Z,12.05
2023-04-09T03:34:46.446Z,11.95
2023-04-09T03:36:28.547Z,11.52
2023-04-09T03:52:11.381Z,12.30
2023-04-09T03:53:19.924Z,11.98
2023-04-09T03:57:38.680Z,12.02
2023-04-09T04:11:24.107Z,12.00
2023-04-09T04:12:32.019Z,12.70
2023-04-09T04:26:11.156Z,13.02
2023-04-09T04:27:14.279Z,13.93
2023-04-09T04:28:16.756Z,14.85
2023-04-09T04:29:19.605Z,15.20
2023-04-09T04:30:27.698Z,16.17
2023-04-09T04:31:40.486Z,15.70
2023-04-09T04:32:43.021Z,16.35
2023-04-09T04:34:51.355Z,15.30
2023-04-09T04:36:10.068Z,16.55
2023-04-09T04:37:16.689Z,19.63
2023-04-09T04:38:19.613Z,20.63
2023-04-09T04:39:22.315Z,25.85
2023-04-09T04:40:38.655Z,27.58
2023-04-09T04:41:42.465Z,27.13
2023-04-09T04:42:55.206Z,27.38
2023-04-09T04:44:41.329Z,22.92
2023-04-09T04:46:03.991Z,20.15
2023-04-09T04:47:33.218Z,16.80
2023-04-09T04:48:36.072Z,15.73
2023-04-09T04:49:38.551Z,17.48
2023-04-09T04:52:21.616Z,15.48
2023-04-09T04:54:54.686Z,16.48
2023-04-09T04:56:16.263Z,17.50
2023-04-09T04:57:37.411Z,20.45
2023-04-09T05:00:19.118Z,20.52
2023-04-09T05:03:56.356Z,22.40
2023-04-09T05:05:08.554Z,22.48
2023-04-09T05:06:18.506Z,21.58
2023-04-09T05:07:21.892Z,22.17
2023-04-09T05:08:28.113Z,22.35
2023-04-09T05:12:06.935Z,24.48
2023-04-09T05:13:12.458Z,23.55
2023-04-09T05:14:15.087Z,23.15
2023-04-09T05:15:19.958Z,22.88
2023-04-09T05:16:35.489Z,24.30
2023-04-09T05:18:08.213Z,23.85
2023-04-09T05:20:53.738Z,22.15
2023-04-09T05:23:08.103Z,20.98
2023-04-09T05:26:23.641Z,21.70
2023-04-09T05:27:55.716Z,22.23
2023-04-09T05:29:24.913Z,19.80
2023-04-09T05:30:27.545Z,23.02
2023-04-09T05:31:40.555Z,20.25
2023-04-09T05:32:48.301Z,19.92
2023-04-09T05:36:07.575Z,18.02
2023-04-09T05:37:10.986Z,17.63
2023-04-09T05:38:14.593Z,15.98
2023-04-09T05:39:19.346Z,17.35
2023-04-09T05:40:31.414Z,16.10
2023-04-09T05:41:34.009Z,16.67
2023-04-09T05:43:04.579Z,14.88
2023-04-09T05:44:16.592Z,14.38
2023-04-09T05:45:28.819Z,14.82
2023-04-09T05:46:55.990Z,13.05
2023-04-09T05:48:08.469Z,14.20
2023-04-09T05:49:20.276Z,12.60
2023-04-09T06:02:58.682Z,9.13
2023-04-09T06:04:19.381Z,10.13
2023-04-09T06:05:29.744Z,11.65
2023-04-09T06:06:32.814Z,12.50
2023-04-09T06:07:35.899Z,12.40
2023-04-09T06:08:39.079Z,14.32
2023-04-09T06:09:41.579Z,12.35
2023-04-09T06:10:44.201Z,13.00
2023-04-09T06:13:10.834Z,13.93
2023-04-09T06:14:55.876Z,14.10
2023-04-09T06:16:10.658Z,13.15
2023-04-09T06:17:16.106Z,13.23
2023-04-09T06:18:57.567Z,12.40
2023-04-09T06:20:00.270Z,13.38
2023-04-09T06:21:06.594Z,12.10
2023-04-09T06:22:12.340Z,12.88
2023-04-09T06:23:15.061Z,11.98
2023-04-09T06:24:17.534Z,12.45
2023-04-09T06:25:20.158Z,12.38
2023-04-09T06:26:22.937Z,12.32
2023-04-09T06:27:25.611Z,12.27
2023-04-09T06:28:31.742Z,12.05
2023-04-09T06:29:34.279Z,12.05
2023-04-09T06:30:44.058Z,12.50
2023-04-09T06:31:51.423Z,13.02
2023-04-09T06:33:18.563Z,13.05
2023-04-09T06:34:22.557Z,12.65
2023-04-09T06:36:10.128Z,12.07
2023-04-09T06:37:54.444Z,11.25
2023-04-09T06:41:02.217Z,12.13
2023-04-09T06:42:06.488Z,12.85
2023-04-09T06:43:15.667Z,12.75
2023-04-09T06:44:43.021Z,13.15
2023-04-09T06:45:45.577Z,12.27
2023-04-09T06:46:51.054Z,12.60
2023-04-09T06:48:07.226Z,12.43
2023-04-09T06:51:02.699Z,11.10
2023-04-09T06:52:10.749Z,11.50
2023-04-09T06:53:28.694Z,10.57
2023-04-09T06:54:45.591Z,12.73
2023-04-09T06:55:47.952Z,12.63
2023-04-09T06:56:50.594Z,12.40
2023-04-09T06:57:53.226Z,12.10
2023-04-09T06:58:55.739Z,12.27
2023-04-09T06:59:58.083Z,12.02
2023-04-09T07:01:10.241Z,11.90
2023-04-09T07:02:22.935Z,12.35
2023-04-09T07:05:36.121Z,12.77
2023-04-09T07:06:47.677Z,13.95
2023-04-09T07:07:51.415Z,13.45
2023-04-09T07:08:55.931Z,13.13
2023-04-09T07:09:58.866Z,12.65
2023-04-09T07:11:01.811Z,13.48
2023-04-09T07:12:04.876Z,12.88
2023-04-09T07:13:07.585Z,12.50
2023-04-09T07:14:10.266Z,12.45
2023-04-09T07:19:27.481Z,13.23
2023-04-09T07:22:07.977Z,12.50
2023-04-09T07:24:03.924Z,12.23
2023-04-09T07:25:10.745Z,13.23
2023-04-09T07:28:23.047Z,11.73
2023-04-09T07:29:34.339Z,12.27
2023-04-09T07:30:40.590Z,13.07
2023-04-09T07:31:58.326Z,16.67
2023-04-09T07:33:36.961Z,15.77
2023-04-09T07:34:45.573Z,14.57
2023-04-09T07:35:56.107Z,14.60
2023-04-09T07:37:39.504Z,14.00
2023-04-09T07:39:54.998Z,11.57
2023-04-09T07:42:50.251Z,12.63
2023-04-09T07:43:53.173Z,11.15
2023-04-09T07:46:22.952Z,12.43
2023-04-09T07:53:23.218Z,10.43
2023-04-09T07:55:22.289Z,11.32
2023-04-09T07:56:41.725Z,11.52
2023-04-09T07:58:11.153Z,11.23
2023-04-09T08:01:18.461Z,11.32
2023-04-09T08:02:51.935Z,11.85
2023-04-09T08:06:00.614Z,10.05
2023-04-09T08:07:11.671Z,11.35
2023-04-09T08:08:14.102Z,11.05
2023-04-09T08:09:18.802Z,11.15
2023-04-09T08:10:21.690Z,10.52
2023-04-09T08:16:02.846Z,10.48
2023-04-09T08:17:06.581Z,10.73
2023-04-09T08:18:09.639Z,9.77
2023-04-09T08:19:12.377Z,10.13
2023-04-09T08:20:17.084Z,11.18
2023-04-09T08:21:23.046Z,11.10
2023-04-09T08:22:41.746Z,11.15
2023-04-09T08:24:08.863Z,10.70
2023-04-09T08:25:14.538Z,9.80
2023-04-09T08:26:43.944Z,9.90
2023-04-09T08:27:54.067Z,10.23
2023-04-09T08:31:42.186Z,10.32
2023-04-09T08:32:45.000Z,9.75
2023-04-09T08:33:50.343Z,9.75
2023-04-09T08:34:52.822Z,9.68
2023-04-09T08:35:57.216Z,9.38
2023-04-09T08:37:02.903Z,9.80
2023-04-09T08:39:45.826Z,9.38
2023-04-09T08:41:29.714Z,9.15
2023-04-09T08:43:42.025Z,9.20
2023-04-09T08:44:54.617Z,7.75
2023-04-09T08:45:59.705Z,7.85
2023-04-09T08:47:02.869Z,8.52
2023-04-09T08:48:06.260Z,8.63
2023-04-09T08:49:52.440Z,8.38
2023-04-09T08:51:50.600Z,8.52
2023-04-09T08:56:04.177Z,6.78
2023-04-09T08:57:07.128Z,7.82
2023-04-09T08:58:10.816Z,7.47
2023-04-09T08:59:20.458Z,7.82
2023-04-09T09:00:22.977Z,7.97
2023-04-09T09:01:27.226Z,7.82
2023-04-09T09:02:31.880Z,8.45
2023-04-09T09:03:56.607Z,8.30
2023-04-09T09:05:01.919Z,8.18
2023-04-09T09:06:04.700Z,8.20
2023-04-09T09:07:07.588Z,8.63
2023-04-09T09:08:41.563Z,8.20
2023-04-09T09:12:16.584Z,7.88
2023-04-09T09:15:51.202Z,7.93
2023-04-09T09:18:43.692Z,8.55
2023-04-09T09:20:06.854Z,8.20
2023-04-09T09:34:36.404Z,8.23
2023-04-09T09:36:05.334Z,7.45
2023-04-09T09:42:09.970Z,7.95
2023-04-09T09:43:22.488Z,7.50
2023-04-09T09:44:34.068Z,8.60
2023-04-09T09:45:39.284Z,8.52
2023-04-09T09:47:35.144Z,7.65
2023-04-09T09:48:46.473Z,7.88
2023-04-09T09:49:57.972Z,8.73
2023-04-09T09:51:04.259Z,8.90
2023-04-09T09:52:10.142Z,8.18
2023-04-09T09:53:14.663Z,8.75
2023-04-09T10:07:14.314Z,8.88
2023-04-09T10:08:17.019Z,9.50
2023-04-09T10:09:21.128Z,9.20
2023-04-09T10:10:25.147Z,8.57
2023-04-09T10:12:30.146Z,8.77
2023-04-09T10:13:41.972Z,8.70
2023-04-09T10:14:45.586Z,8.43
2023-04-09T10:15:50.927Z,8.82
2023-04-09T10:16:56.810Z,8.27
2023-04-09T10:17:59.861Z,8.55
2023-04-09T10:19:03.374Z,8.90
2023-04-09T10:20:12.216Z,9.52
2023-04-09T10:21:23.283Z,8.73
2023-04-09T10:22:27.276Z,8.70
2023-04-09T10:23:42.354Z,8.70
2023-04-09T10:24:45.231Z,8.60
2023-04-09T10:25:47.902Z,8.77
2023-04-09T10:26:54.789Z,8.85
2023-04-09T10:30:38.525Z,9.40
2023-04-09T10:37:03.020Z,8.25
2023-04-09T10:38:09.973Z,9.52
2023-04-09T10:39:14.157Z,8.27
2023-04-09T10:48:06.468Z,9.63
2023-04-09T10:50:53.026Z,8.70
2023-04-09T10:52:23.736Z,9.77
2023-04-09T10:54:16.869Z,8.52
2023-04-09T10:55:40.956Z,8.38
2023-04-09T10:58:28.227Z,9.07
2023-04-09T11:13:29.387Z,8.82
2023-04-09T11:14:35.580Z,8.43
2023-04-09T11:15:42.368Z,10.00
2023-04-09T11:16:48.154Z,9.32
2023-04-09T11:17:52.681Z,9.27
2023-04-09T11:18:56.398Z,9.80
2023-04-09T11:22:06.663Z,9.30
2023-04-09T11:23:10.244Z,9.30
2023-04-09T11:26:37.755Z,9.07
2023-04-09T11:28:14.028Z,11.25
2023-04-09T11:30:44.108Z,9.60
2023-04-09T11:31:47.847Z,9.73
2023-04-09T11:32:52.831Z,10.20
2023-04-09T11:33:55.470Z,10.00
2023-04-09T11:34:58.690Z,10.13
2023-04-09T11:36:01.914Z,10.25
2023-04-09T11:38:53.284Z,8.95
2023-04-09T11:41:52.826Z,8.30
2023-04-09T11:43:34.037Z,8.82
2023-04-09T11:46:41.915Z,8.55
2023-04-09T11:52:52.740Z,8.68
2023-04-09T11:54:51.124Z,9.95
2023-04-09T11:56:20.835Z,8.98
2023-04-09T11:58:36.716Z,9.70
2023-04-09T11:59:41.899Z,8.75
2023-04-09T12:00:46.984Z,8.90
2023-04-09T12:03:40.849Z,9.32
2023-04-09T12:07:31.286Z,9.32
2023-04-09T12:10:48.262Z,9.57
2023-04-09T12:11:51.320Z,9.02
2023-04-09T12:13:18.309Z,9.60
2023-04-09T12:14:22.592Z,9.57
2023-04-09T12:15:35.680Z,9.85
2023-04-09T12:19:49.561Z,9.75
2023-04-09T12:21:01.592Z,8.90
2023-04-09T12:26:16.477Z,9.40
2023-04-09T12:27:19.556Z,9.43
2023-04-09T12:29:08.920Z,9.57
2023-04-09T12:33:52.858Z,9.65
2023-04-09T12:35:25.770Z,8.80
2023-04-09T12:36:28.336Z,9.73
2023-04-09T12:37:31.146Z,9.50
2023-04-09T12:39:06.828Z,9.90
2023-04-09T12:42:03.674Z,10.35
2023-04-09T12:44:26.640Z,9.40
2023-04-09T12:45:30.434Z,9.32
2023-04-09T12:49:14.737Z,9.00
2023-04-09T12:50:30.300Z,9.35
2023-04-09T12:51:32.962Z,9.07
2023-04-09T12:59:27.045Z,10.57
2023-04-09T13:06:00.362Z,9.65
2023-04-09T13:13:55.868Z,8.40
2023-04-09T13:15:06.810Z,9.13
2023-04-09T13:16:09.424Z,9.02
2023-04-09T13:17:12.800Z,9.10
2023-04-09T13:19:56.261Z,10.65
2023-04-09T13:21:29.134Z,9.20
2023-04-09T13:22:49.849Z,8.30
2023-04-09T13:24:13.396Z,8.73
2023-04-09T13:25:33.651Z,8.90
2023-04-09T13:26:36.207Z,8.80
2023-04-09T13:28:22.882Z,8.52
2023-04-09T13:29:33.567Z,8.65
2023-04-09T13:30:37.401Z,9.32
2023-04-09T13:32:19.219Z,9.20
2023-04-09T13:33:57.198Z,9.52
2023-04-09T13:36:51.752Z,8.13
2023-04-09T13:37:54.396Z,8.93
2023-04-09T13:39:06.158Z,8.63
2023-04-09T13:40:09.442Z,8.18
2023-04-09T13:41:19.218Z,9.13
2023-04-09T13:42:23.617Z,8.88
2023-04-09T13:46:08.922Z,8.80
2023-04-09T13:47:46.902Z,9.45
2023-04-09T13:48:50.519Z,9.20
2023-04-09T13:49:56.691Z,8.82
2023-04-09T13:50:59.267Z,9.10
2023-04-09T14:00:02.023Z,9.02
2023-04-09T14:01:19.832Z,9.35
2023-04-09T14:03:13.403Z,8.05
2023-04-09T14:04:17.925Z,9.35
2023-04-09T14:05:20.572Z,9.27
2023-04-09T14:06:24.678Z,7.88
2023-04-09T14:07:27.376Z,8.73
2023-04-09T14:08:33.111Z,9.25
2023-04-09T14:09:36.170Z,8.90
2023-04-09T14:10:39.256Z,9.63
2023-04-09T14:11:41.620Z,9.55
2023-04-09T14:12:44.331Z,8.55
2023-04-09T14:13:53.945Z,9.45
2023-04-09T14:15:03.161Z,8.85
2023-04-09T14:21:19.743Z,8.77
2023-04-09T14:24:23.796Z,8.63
2023-04-09T14:25:34.674Z,8.85
2023-04-09T14:26:37.842Z,9.07
2023-04-09T14:27:58.104Z,8.50
2023-04-09T14:29:01.907Z,9.10
2023-04-09T14:31:57.903Z,10.90
2023-04-09T14:33:03.873Z,10.63
2023-04-09T14:34:06.252Z,9.52
2023-04-09T14:35:17.671Z,9.90
2023-04-09T14:36:19.956Z,9.10
2023-04-09T14:37:23.315Z,11.02
2023-04-09T14:38:31.725Z,10.38
2023-04-09T14:40:44.671Z,8.85
2023-04-09T14:41:46.944Z,9.30
2023-04-09T14:42:50.367Z,8.30
2023-04-09T14:43:52.757Z,8.57
2023-04-09T14:45:42.920Z,9.00
2023-04-09T14:46:45.522Z,8.60
2023-04-09T14:47:52.032Z,10.20
2023-04-09T14:49:01.659Z,8.68
2023-04-09T14:50:04.402Z,8.63
2023-04-09T14:51:27.663Z,8.23
2023-04-09T14:52:42.323Z,8.98
2023-04-09T14:58:38.979Z,8.18
2023-04-09T14:59:48.719Z,8.70
2023-04-09T15:00:54.283Z,8.65
2023-04-09T15:05:51.139Z,8.82
2023-04-09T15:06:53.807Z,9.82
2023-04-09T15:08:00.134Z,9.77
2023-04-09T15:09:09.087Z,8.40
2023-04-09T15:10:17.745Z,9.70
2023-04-09T15:11:23.023Z,9.32
2023-04-09T15:12:42.847Z,9.75
2023-04-09T15:13:45.888Z,9.48
2023-04-09T15:14:48.256Z,9.30
2023-04-09T15:15:50.929Z,9.52
2023-04-09T15:18:22.309Z,9.95
2023-04-09T15:19:33.755Z,8.93
2023-04-09T15:20:37.727Z,9.07
2023-04-09T15:22:42.901Z,9.55
2023-04-09T15:24:16.122Z,9.93
2023-04-09T15:25:24.758Z,9.32
2023-04-09T15:26:39.777Z,10.18
2023-04-09T15:27:42.363Z,9.38
2023-04-09T15:29:12.736Z,8.68
2023-04-09T15:30:15.383Z,8.85
2023-04-09T15:31:54.643Z,8.60
2023-04-09T15:33:28.864Z,8.65
2023-04-09T15:34:33.517Z,9.00
2023-04-09T15:35:44.611Z,8.35
2023-04-09T15:36:47.503Z,8.48
2023-04-09T15:39:12.065Z,8.85
2023-04-09T15:40:21.816Z,8.43
2023-04-09T15:41:24.634Z,9.07
2023-04-09T15:42:53.342Z,10.48
2023-04-09T15:43:59.020Z,9.13
2023-04-09T15:45:01.723Z,10.25
2023-04-09T15:46:11.944Z,9.52
2023-04-09T15:47:52.735Z,9.90
2023-04-09T15:48:55.628Z,9.30
2023-04-09T15:50:02.106Z,9.63
2023-04-09T15:51:15.173Z,9.38
2023-04-09T15:54:33.147Z,8.10
2023-04-09T15:55:59.171Z,9.40
2023-04-09T15:57:09.562Z,10.27
2023-04-09T15:59:59.987Z,11.63
2023-04-09T16:01:41.635Z,12.18
2023-04-09T16:03:16.456Z,11.55
2023-04-09T16:04:46.673Z,10.07
2023-04-09T16:06:07.722Z,9.73
2023-04-09T16:07:17.869Z,9.00
2023-04-09T16:09:11.555Z,9.68
2023-04-09T16:11:12.376Z,8.68
2023-04-09T16:12:14.846Z,8.38
2023-04-09T16:13:17.310Z,8.63
2023-04-09T16:14:19.565Z,8.57
2023-04-09T16:15:21.980Z,9.15
2023-04-09T16:16:24.497Z,8.18
2023-04-09T16:17:26.978Z,7.88
2023-04-09T16:18:30.062Z,9.13
2023-04-09T16:19:32.607Z,8.90
2023-04-09T16:21:07.567Z,9.52
2023-04-09T16:27:28.268Z,8.75
2023-04-09T16:32:40.548Z,9.13
2023-04-09T16:33:43.280Z,8.65
2023-04-09T16:34:46.627Z,9.13
2023-04-09T16:37:28.091Z,8.93
2023-04-09T16:38:31.424Z,8.60
2023-04-09T16:39:34.097Z,8.88
2023-04-09T16:40:36.764Z,7.78
2023-04-09T16:41:39.202Z,8.50
2023-04-09T16:42:41.858Z,7.97
2023-04-09T16:43:46.652Z,8.73
2023-04-09T16:44:50.149Z,10.10
2023-04-09T16:45:52.746Z,9.95
2023-04-09T16:46:56.588Z,10.43
2023-04-09T16:47:59.053Z,12.70
2023-04-09T16:49:01.531Z,13.35
2023-04-09T16:50:04.884Z,14.30
2023-04-09T16:55:01.723Z,11.43
2023-04-09T16:56:04.445Z,10.45
2023-04-09T17:02:23.674Z,9.32
2023-04-09T17:04:06.348Z,8.65
2023-04-09T17:05:16.858Z,9.55
2023-04-09T17:06:26.866Z,9.30
2023-04-09T17:07:42.110Z,9.30
2023-04-09T17:08:45.475Z,9.05
2023-04-09T17:17:06.463Z,8.98
2023-04-09T17:18:49.598Z,8.10
2023-04-09T17:19:52.704Z,9.13
2023-04-09T17:20:59.865Z,8.98
2023-04-09T17:22:24.453Z,9.57
2023-04-09T17:23:37.145Z,8.70
2023-04-09T17:24:48.517Z,9.27
2023-04-09T17:25:51.439Z,8.32
2023-04-09T17:27:19.901Z,9.02
2023-04-09T17:28:22.452Z,8.48
2023-04-09T17:29:34.114Z,8.80
2023-04-09T17:30:36.874Z,8.77
2023-04-09T17:31:47.964Z,10.55
2023-04-09T17:33:16.610Z,10.07
2023-04-09T17:34:20.457Z,9.55
2023-04-09T17:35:36.053Z,10.60
2023-04-09T17:37:01.486Z,9.50
2023-04-09T17:38:17.368Z,10.65
2023-04-09T17:39:20.104Z,10.32
2023-04-09T17:40:28.192Z,10.60
2023-04-09T17:41:30.829Z,10.50
2023-04-09T17:43:11.980Z,11.48
2023-04-09T17:44:14.596Z,10.60
2023-04-09T17:45:32.622Z,10.98
2023-04-09T17:46:51.612Z,16.00
2023-04-09T17:48:00.411Z,23.17
2023-04-09T17:49:07.244Z,20.48
2023-04-09T17:59:32.428Z,22.92
2023-04-09T18:00:35.068Z,38.35
2023-04-09T18:01:37.580Z,30.73
2023-04-09T18:04:25.419Z,31.45
2023-04-09T18:05:28.658Z,31.95
2023-04-09T18:06:31.695Z,33.08
2023-04-09T18:07:34.703Z,26.17
2023-04-09T18:08:37.186Z,24.95
2023-04-09T18:12:04.012Z,21.08
2023-04-09T18:16:38.676Z,15.30
2023-04-09T18:17:43.455Z,14.77
2023-04-09T18:18:47.495Z,15.40
2023-04-09T18:30:42.069Z,13.40
2023-04-09T18:31:44.528Z,12.55
2023-04-09T18:32:55.002Z,11.80
2023-04-09T18:33:57.539Z,12.60
2023-04-09T18:34:59.908Z,13.93
2023-04-09T18:36:02.734Z,13.88
2023-04-09T18:37:12.388Z,13.32
2023-04-09T18:38:18.716Z,14.60
2023-04-09T18:41:06.119Z,12.43
2023-04-09T18:45:54.866Z,12.10
2023-04-09T18:47:02.952Z,12.82
2023-04-09T19:02:43.309Z,13.73
2023-04-09T19:04:10.846Z,13.38
2023-04-09T19:07:40.604Z,12.55
2023-04-09T19:11:13.489Z,10.93
2023-04-09T19:17:59.452Z,11.65
2023-04-09T19:22:26.868Z,11.70
2023-04-09T19:29:05.482Z,11.18
2023-04-09T19:39:36.658Z,12.35
2023-04-09T19:52:47.333Z,12.02
2023-04-09T19:55:51.845Z,12.77
2023-04-09T19:57:22.647Z,13.40
2023-04-09T19:58:32.810Z,13.43
2023-04-09T19:59:41.326Z,12.77
2023-04-09T20:00:43.982Z,13.85
2023-04-09T20:01:54.255Z,14.43
2023-04-09T20:02:57.720Z,12.82
2023-04-09T20:04:01.228Z,15.05
2023-04-09T20:05:04.104Z,13.98
2023-04-09T20:06:09.467Z,13.45
2023-04-09T20:07:16.508Z,13.05
2023-04-09T20:08:19.117Z,14.18
2023-04-09T20:09:33.688Z,14.85
2023-04-09T20:10:44.740Z,14.20
2023-04-09T20:12:05.104Z,13.15
2023-04-09T20:13:08.977Z,13.10
2023-04-09T20:14:12.324Z,13.15
2023-04-09T20:15:15.415Z,14.35
2023-04-09T20:16:18.341Z,14.07
2023-04-09T20:17:21.688Z,14.10
2023-04-09T20:18:24.710Z,15.05
2023-04-09T20:19:27.951Z,15.18
2023-04-09T20:20:30.771Z,14.52
2023-04-09T20:21:33.835Z,14.52
2023-04-09T20:26:33.453Z,14.70
2023-04-09T20:28:42.583Z,13.93
2023-04-09T20:31:52.228Z,14.00
2023-04-09T20:36:02.371Z,16.10
2023-04-09T20:39:30.675Z,14.50
2023-04-09T20:43:12.576Z,14.50
2023-04-09T20:48:40.646Z,14.70
2023-04-09T20:53:55.686Z,15.57
2023-04-09T20:55:37.452Z,14.35
2023-04-09T21:14:49.341Z,16.15
2023-04-09T21:15:53.433Z,16.05
2023-04-09T21:16:56.737Z,15.88
2023-04-09T21:50:30.288Z,15.27
2023-04-09T22:15:06.815Z,15.18
2023-04-09T22:16:32.933Z,16.15
2023-04-09T22:32:52.608Z,15.38
2023-04-09T22:41:57.827Z,14.98
2023-04-09T22:43:10.796Z,15.50
2023-04-09T22:50:38.357Z,14.95
2023-04-09T22:58:43.733Z,14.27
2023-04-09T22:59:54.201Z,14.25
2023-04-09T23:01:35.405Z,15.30
2023-04-09T23:02:57.358Z,14.27
2023-04-09T23:06:22.863Z,15.40
2023-04-09T23:10:41.051Z,15.45
2023-04-09T23:12:11.449Z,15.10
2023-04-09T23:16:37.228Z,14.18
2023-04-09T23:19:37.159Z,15.32
2023-04-09T23:20:45.226Z,15.18
2023-04-09T23:22:51.222Z,15.70
2023-04-09T23:23:57.630Z,15.50
2023-04-09T23:25:08.195Z,15.75
2023-04-09T23:27:07.459Z,16.23
2023-04-09T23:31:04.849Z,14.35
2023-04-09T23:32:16.017Z,13.80
2023-04-09T23:33:40.681Z,14.68
2023-04-09T23:40:56.839Z,14.68
2023-04-09T23:43:57.550Z,14.60
2023-04-09T23:45:24.371Z,15.52
2023-04-09T23:48:14.998Z,14.52
2023-04-09T23:49:43.749Z,15.63
2023-04-09T23:51:51.776Z,15.10
2023-04-09T23:53:35.597Z,14.75
